sensor_id;sensor_type;location;lat;lon;timestamp;pressure;altitude;pressure_sealevel;temperature;humidity
12624;BME280;6377;42.836;23.998;2024-02-21T00:00:49;96362.69;;;7.32;100.00
12624;BME280;6377;42.836;23.998;2024-02-21T00:03:16;96354.00;;;7.13;100.00
12624;BME280;6377;42.836;23.998;2024-02-21T00:05:43;96363.13;;;6.99;100.00
12624;BME280;6377;42.836;23.998;2024-02-21T00:08:11;96358.16;;;6.96;100.00
12624;BME280;6377;42.836;23.998;2024-02-21T00:10:39;96353.44;;;6.90;100.00
12624;BME280;6377;42.836;23.998;2024-02-21T00:13:07;96361.22;;;6.92;100.00
12624;BME280;6377;42.836;23.998;2024-02-21T00:15:34;96360.53;;;6.90;100.00
12624;BME280;6377;42.836;23.998;2024-02-21T00:18:01;96294.53;;;6.45;100.00
12624;BME280;6377;42.836;23.998;2024-02-21T00:20:28;96351.97;;;6.78;100.00
12624;BME280;6377;42.836;23.998;2024-02-21T00:22:56;96340.84;;;6.55;100.00
12624;BME280;6377;42.836;23.998;2024-02-21T00:25:23;96364.53;;;6.74;100.00
12624;BME280;6377;42.836;23.998;2024-02-21T00:27:52;96356.22;;;6.79;100.00
12624;BME280;6377;42.836;23.998;2024-02-21T00:30:19;96357.34;;;6.76;100.00
12624;BME280;6377;42.836;23.998;2024-02-21T00:32:46;96358.84;;;6.79;100.00
12624;BME280;6377;42.836;23.998;2024-02-21T00:35:13;96169.31;;;5.48;100.00
12624;BME280;6377;42.836;23.998;2024-02-21T00:37:41;96349.88;;;6.62;100.00
12624;BME280;6377;42.836;23.998;2024-02-21T00:40:08;96343.06;;;6.50;100.00
12624;BME280;6377;42.836;23.998;2024-02-21T00:42:36;96342.81;;;6.53;100.00
12624;BME280;6377;42.836;23.998;2024-02-21T00:45:06;96335.03;;;6.52;100.00
12624;BME280;6377;42.836;23.998;2024-02-21T00:47:33;96341.00;;;6.63;100.00
12624;BME280;6377;42.836;23.998;2024-02-21T00:50:01;96341.28;;;6.70;100.00
12624;BME280;6377;42.836;23.998;2024-02-21T00:52:28;96338.81;;;6.68;100.00
12624;BME280;6377;42.836;23.998;2024-02-21T00:54:55;96264.25;;;6.22;100.00
12624;BME280;6377;42.836;23.998;2024-02-21T00:57:22;96286.63;;;6.35;100.00
12624;BME280;6377;42.836;23.998;2024-02-21T00:59:49;96272.25;;;6.30;100.00
12624;BME280;6377;42.836;23.998;2024-02-21T01:02:18;96279.59;;;6.45;100.00
12624;BME280;6377;42.836;23.998;2024-02-21T01:04:45;96334.66;;;6.66;100.00
12624;BME280;6377;42.836;23.998;2024-02-21T01:07:12;96338.94;;;6.57;100.00
12624;BME280;6377;42.836;23.998;2024-02-21T01:09:40;96324.41;;;6.72;100.00
12624;BME280;6377;42.836;23.998;2024-02-21T01:12:07;96322.31;;;6.76;100.00
12624;BME280;6377;42.836;23.998;2024-02-21T01:14:34;96325.38;;;6.62;100.00
12624;BME280;6377;42.836;23.998;2024-02-21T01:17:01;96288.31;;;6.36;100.00
12624;BME280;6377;42.836;23.998;2024-02-21T01:19:29;96313.47;;;6.58;100.00
12624;BME280;6377;42.836;23.998;2024-02-21T01:21:57;96305.59;;;6.67;100.00
12624;BME280;6377;42.836;23.998;2024-02-21T01:24:24;96310.44;;;6.72;100.00
12624;BME280;6377;42.836;23.998;2024-02-21T01:26:51;96309.91;;;6.78;100.00
12624;BME280;6377;42.836;23.998;2024-02-21T01:29:18;96310.28;;;6.73;100.00
12624;BME280;6377;42.836;23.998;2024-02-21T01:31:45;96307.00;;;6.71;100.00
12624;BME280;6377;42.836;23.998;2024-02-21T01:34:13;96305.47;;;6.59;100.00
12624;BME280;6377;42.836;23.998;2024-02-21T01:36:41;96302.97;;;6.58;100.00
12624;BME280;6377;42.836;23.998;2024-02-21T01:39:08;96191.66;;;5.92;100.00
12624;BME280;6377;42.836;23.998;2024-02-21T01:41:35;96294.78;;;6.61;100.00
12624;BME280;6377;42.836;23.998;2024-02-21T01:44:03;96300.50;;;6.66;100.00
12624;BME280;6377;42.836;23.998;2024-02-21T01:46:30;96290.50;;;6.69;100.00
12624;BME280;6377;42.836;23.998;2024-02-21T01:48:58;96277.66;;;6.57;100.00
12624;BME280;6377;42.836;23.998;2024-02-21T01:51:27;96281.81;;;6.69;100.00
12624;BME280;6377;42.836;23.998;2024-02-21T01:53:56;96280.13;;;6.68;100.00
12624;BME280;6377;42.836;23.998;2024-02-21T01:56:25;96240.72;;;6.30;100.00
12624;BME280;6377;42.836;23.998;2024-02-21T01:58:52;96288.31;;;6.46;100.00
12624;BME280;6377;42.836;23.998;2024-02-21T02:01:19;96263.53;;;6.29;100.00
12624;BME280;6377;42.836;23.998;2024-02-21T02:03:47;96284.44;;;6.50;100.00
12624;BME280;6377;42.836;23.998;2024-02-21T02:06:14;96261.88;;;6.38;100.00
12624;BME280;6377;42.836;23.998;2024-02-21T02:08:42;96288.75;;;6.60;100.00
12624;BME280;6377;42.836;23.998;2024-02-21T02:11:13;96279.59;;;6.55;100.00
12624;BME280;6377;42.836;23.998;2024-02-21T02:13:40;96284.72;;;6.56;100.00
12624;BME280;6377;42.836;23.998;2024-02-21T02:16:07;96285.94;;;6.52;100.00
12624;BME280;6377;42.836;23.998;2024-02-21T02:18:35;96294.41;;;6.56;100.00
12624;BME280;6377;42.836;23.998;2024-02-21T02:21:04;96289.53;;;6.61;100.00
12624;BME280;6377;42.836;23.998;2024-02-21T02:23:33;96294.50;;;6.26;100.00
12624;BME280;6377;42.836;23.998;2024-02-21T02:26:01;96286.34;;;6.09;100.00
12624;BME280;6377;42.836;23.998;2024-02-21T02:28:28;96288.13;;;6.09;100.00
12624;BME280;6377;42.836;23.998;2024-02-21T02:30:55;96255.22;;;5.95;100.00
12624;BME280;6377;42.836;23.998;2024-02-21T02:33:22;96255.22;;;6.05;100.00
12624;BME280;6377;42.836;23.998;2024-02-21T02:35:49;96276.22;;;6.05;100.00
12624;BME280;6377;42.836;23.998;2024-02-21T02:38:16;96282.59;;;5.93;100.00
12624;BME280;6377;42.836;23.998;2024-02-21T02:40:45;96280.94;;;6.01;100.00
12624;BME280;6377;42.836;23.998;2024-02-21T02:43:12;96279.56;;;6.07;100.00
12624;BME280;6377;42.836;23.998;2024-02-21T02:45:39;96259.75;;;5.93;100.00
12624;BME280;6377;42.836;23.998;2024-02-21T02:48:07;96255.91;;;5.97;100.00
12624;BME280;6377;42.836;23.998;2024-02-21T02:50:34;96289.25;;;6.26;100.00
12624;BME280;6377;42.836;23.998;2024-02-21T02:53:01;96296.81;;;6.00;100.00
12624;BME280;6377;42.836;23.998;2024-02-21T02:55:29;96283.84;;;5.98;100.00
12624;BME280;6377;42.836;23.998;2024-02-21T02:57:57;96291.59;;;6.09;100.00
12624;BME280;6377;42.836;23.998;2024-02-21T03:00:24;96287.03;;;6.21;100.00
12624;BME280;6377;42.836;23.998;2024-02-21T03:02:51;96280.00;;;6.31;100.00
12624;BME280;6377;42.836;23.998;2024-02-21T03:05:19;96263.53;;;6.10;100.00
12624;BME280;6377;42.836;23.998;2024-02-21T03:07:47;96254.94;;;6.08;100.00
12624;BME280;6377;42.836;23.998;2024-02-21T03:10:15;96281.25;;;6.37;100.00
12624;BME280;6377;42.836;23.998;2024-02-21T03:12:43;96116.44;;;5.43;100.00
12624;BME280;6377;42.836;23.998;2024-02-21T03:15:11;96280.84;;;6.51;100.00
12624;BME280;6377;42.836;23.998;2024-02-21T03:17:39;96214.88;;;6.15;100.00
12624;BME280;6377;42.836;23.998;2024-02-21T03:20:07;96269.63;;;6.58;100.00
12624;BME280;6377;42.836;23.998;2024-02-21T03:22:35;96268.25;;;6.54;100.00
12624;BME280;6377;42.836;23.998;2024-02-21T03:25:03;96281.25;;;6.65;100.00
12624;BME280;6377;42.836;23.998;2024-02-21T03:27:30;96282.63;;;6.69;100.00
12624;BME280;6377;42.836;23.998;2024-02-21T03:29:58;96284.16;;;6.72;100.00
12624;BME280;6377;42.836;23.998;2024-02-21T03:32:26;96287.75;;;6.71;100.00
12624;BME280;6377;42.836;23.998;2024-02-21T03:34:54;96293.16;;;6.60;100.00
12624;BME280;6377;42.836;23.998;2024-02-21T03:37:22;96292.88;;;6.63;100.00
12624;BME280;6377;42.836;23.998;2024-02-21T03:39:49;96253.16;;;6.47;100.00
12624;BME280;6377;42.836;23.998;2024-02-21T03:42:16;96294.41;;;6.56;100.00
12624;BME280;6377;42.836;23.998;2024-02-21T03:44:43;96288.72;;;6.51;100.00
12624;BME280;6377;42.836;23.998;2024-02-21T03:47:10;96296.72;;;6.49;100.00
12624;BME280;6377;42.836;23.998;2024-02-21T03:49:39;96265.50;;;6.27;100.00
12624;BME280;6377;42.836;23.998;2024-02-21T03:52:06;96263.41;;;6.21;100.00
12624;BME280;6377;42.836;23.998;2024-02-21T03:54:33;96242.09;;;6.05;100.00
12624;BME280;6377;42.836;23.998;2024-02-21T03:57:00;96298.00;;;6.45;100.00
12624;BME280;6377;42.836;23.998;2024-02-21T03:59:28;96302.00;;;6.49;100.00
12624;BME280;6377;42.836;23.998;2024-02-21T04:01:55;96281.38;;;6.35;100.00
12624;BME280;6377;42.836;23.998;2024-02-21T04:04:22;96306.28;;;6.41;100.00
12624;BME280;6377;42.836;23.998;2024-02-21T04:06:51;96304.06;;;6.36;100.00
12624;BME280;6377;42.836;23.998;2024-02-21T04:09:18;96291.88;;;6.26;100.00
12624;BME280;6377;42.836;23.998;2024-02-21T04:11:46;96304.91;;;6.37;100.00
12624;BME280;6377;42.836;23.998;2024-02-21T04:14:13;96299.38;;;6.40;100.00
12624;BME280;6377;42.836;23.998;2024-02-21T04:16:40;96289.94;;;6.37;100.00
12624;BME280;6377;42.836;23.998;2024-02-21T04:19:07;96271.56;;;6.18;100.00
12624;BME280;6377;42.836;23.998;2024-02-21T04:21:34;96306.28;;;6.41;100.00
12624;BME280;6377;42.836;23.998;2024-02-21T04:24:04;96298.13;;;6.44;100.00
12624;BME280;6377;42.836;23.998;2024-02-21T04:26:31;96249.44;;;6.11;100.00
12624;BME280;6377;42.836;23.998;2024-02-21T04:28:58;96248.91;;;6.07;100.00
12624;BME280;6377;42.836;23.998;2024-02-21T04:31:25;96303.94;;;6.28;100.00
12624;BME280;6377;42.836;23.998;2024-02-21T04:33:52;96301.69;;;6.24;100.00
12624;BME280;6377;42.836;23.998;2024-02-21T04:36:19;96300.03;;;6.22;100.00
12624;BME280;6377;42.836;23.998;2024-02-21T04:38:46;96304.06;;;6.27;100.00
12624;BME280;6377;42.836;23.998;2024-02-21T04:41:15;96312.22;;;6.33;100.00
12624;BME280;6377;42.836;23.998;2024-02-21T04:43:42;96311.25;;;6.34;100.00
12624;BME280;6377;42.836;23.998;2024-02-21T04:46:09;96307.81;;;6.34;100.00
12624;BME280;6377;42.836;23.998;2024-02-21T04:48:37;96313.88;;;6.34;100.00
12624;BME280;6377;42.836;23.998;2024-02-21T04:51:04;96301.72;;;6.33;100.00
12624;BME280;6377;42.836;23.998;2024-02-21T04:53:31;96311.13;;;6.36;100.00
12624;BME280;6377;42.836;23.998;2024-02-21T04:55:59;96309.44;;;6.35;100.00
12624;BME280;6377;42.836;23.998;2024-02-21T04:58:28;96304.19;;;6.15;100.00
12624;BME280;6377;42.836;23.998;2024-02-21T05:00:55;96311.66;;;6.10;100.00
12624;BME280;6377;42.836;23.998;2024-02-21T05:03:22;96311.50;;;6.12;100.00
12624;BME280;6377;42.836;23.998;2024-02-21T05:05:49;96308.44;;;5.97;100.00
12624;BME280;6377;42.836;23.998;2024-02-21T05:08:16;96264.41;;;5.80;100.00
12624;BME280;6377;42.836;23.998;2024-02-21T05:10:43;96308.00;;;6.02;100.00
12624;BME280;6377;42.836;23.998;2024-02-21T05:13:10;96279.88;;;5.74;100.00
12624;BME280;6377;42.836;23.998;2024-02-21T05:15:39;96307.00;;;5.84;100.00
12624;BME280;6377;42.836;23.998;2024-02-21T05:18:06;96270.69;;;5.58;100.00
12624;BME280;6377;42.836;23.998;2024-02-21T05:20:33;96308.47;;;5.77;100.00
12624;BME280;6377;42.836;23.998;2024-02-21T05:23:00;96310.34;;;5.86;100.00
12624;BME280;6377;42.836;23.998;2024-02-21T05:25:27;96308.28;;;5.99;100.00
12624;BME280;6377;42.836;23.998;2024-02-21T05:27:54;96312.31;;;6.03;100.00
12624;BME280;6377;42.836;23.998;2024-02-21T05:30:27;96312.19;;;6.04;100.00
12624;BME280;6377;42.836;23.998;2024-02-21T05:32:55;96311.78;;;6.09;100.00
12624;BME280;6377;42.836;23.998;2024-02-21T05:35:25;96313.44;;;6.10;100.00
12624;BME280;6377;42.836;23.998;2024-02-21T05:37:53;96308.28;;;5.99;100.00
12624;BME280;6377;42.836;23.998;2024-02-21T05:40:20;96314.09;;;5.93;100.00
12624;BME280;6377;42.836;23.998;2024-02-21T05:42:47;96336.22;;;6.00;100.00
12624;BME280;6377;42.836;23.998;2024-02-21T05:45:14;96316.19;;;6.08;100.00
12624;BME280;6377;42.836;23.998;2024-02-21T05:47:41;96294.63;;;5.95;100.00
12624;BME280;6377;42.836;23.998;2024-02-21T05:50:10;96315.09;;;6.01;100.00
12624;BME280;6377;42.836;23.998;2024-02-21T05:52:37;96315.78;;;5.73;100.00
12624;BME280;6377;42.836;23.998;2024-02-21T05:55:07;96320.03;;;5.64;100.00
12624;BME280;6377;42.836;23.998;2024-02-21T05:57:34;96324.38;;;5.75;100.00
12624;BME280;6377;42.836;23.998;2024-02-21T06:00:04;96315.41;;;5.78;100.00
12624;BME280;6377;42.836;23.998;2024-02-21T06:02:31;96334.53;;;5.99;100.00
12624;BME280;6377;42.836;23.998;2024-02-21T06:04:58;96330.97;;;6.00;100.00
12624;BME280;6377;42.836;23.998;2024-02-21T06:07:27;96333.47;;;6.01;100.00
12624;BME280;6377;42.836;23.998;2024-02-21T06:09:54;96340.94;;;6.06;100.00
12624;BME280;6377;42.836;23.998;2024-02-21T06:12:21;96339.94;;;5.97;100.00
12624;BME280;6377;42.836;23.998;2024-02-21T06:14:48;96201.09;;;5.15;100.00
12624;BME280;6377;42.836;23.998;2024-02-21T06:17:15;96349.22;;;6.11;100.00
12624;BME280;6377;42.836;23.998;2024-02-21T06:19:43;96179.28;;;5.04;100.00
12624;BME280;6377;42.836;23.998;2024-02-21T06:22:11;96345.91;;;6.09;100.00
12624;BME280;6377;42.836;23.998;2024-02-21T06:24:40;96352.72;;;6.21;100.00
12624;BME280;6377;42.836;23.998;2024-02-21T06:27:07;96271.75;;;5.46;100.00
12624;BME280;6377;42.836;23.998;2024-02-21T06:29:34;96224.22;;;5.30;100.00
12624;BME280;6377;42.836;23.998;2024-02-21T06:32:02;96354.63;;;6.09;100.00
12624;BME280;6377;42.836;23.998;2024-02-21T06:34:31;96336.34;;;6.08;100.00
12624;BME280;6377;42.836;23.998;2024-02-21T06:36:58;96352.03;;;6.29;100.00
12624;BME280;6377;42.836;23.998;2024-02-21T06:39:25;96356.34;;;6.39;100.00
12624;BME280;6377;42.836;23.998;2024-02-21T06:41:56;96314.41;;;6.18;100.00
12624;BME280;6377;42.836;23.998;2024-02-21T06:44:23;96350.97;;;6.50;100.00
12624;BME280;6377;42.836;23.998;2024-02-21T06:46:50;96315.66;;;6.24;100.00
12624;BME280;6377;42.836;23.998;2024-02-21T06:49:17;96319.69;;;6.28;100.00
12624;BME280;6377;42.836;23.998;2024-02-21T06:51:45;96381.94;;;6.56;100.00
12624;BME280;6377;42.836;23.998;2024-02-21T06:54:12;96315.94;;;6.21;100.00
12624;BME280;6377;42.836;23.998;2024-02-21T06:56:40;96310.56;;;6.32;100.00
12624;BME280;6377;42.836;23.998;2024-02-21T06:59:08;96370.47;;;6.67;100.00
12624;BME280;6377;42.836;23.998;2024-02-21T07:01:36;96372.97;;;6.68;100.00
12624;BME280;6377;42.836;23.998;2024-02-21T07:04:03;96368.56;;;6.69;100.00
12624;BME280;6377;42.836;23.998;2024-02-21T07:06:31;96315.69;;;6.34;100.00
12624;BME280;6377;42.836;23.998;2024-02-21T07:08:58;96219.22;;;5.77;100.00
12624;BME280;6377;42.836;23.998;2024-02-21T07:11:25;96366.88;;;6.87;100.00
12624;BME280;6377;42.836;23.998;2024-02-21T07:13:52;96367.03;;;6.95;100.00
12624;BME280;6377;42.836;23.998;2024-02-21T07:16:20;96371.59;;;7.03;100.00
12624;BME280;6377;42.836;23.998;2024-02-21T07:18:47;96362.03;;;7.11;100.00
12624;BME280;6377;42.836;23.998;2024-02-21T07:21:14;96362.31;;;7.18;100.00
12624;BME280;6377;42.836;23.998;2024-02-21T07:23:42;96367.69;;;7.26;100.00
12624;BME280;6377;42.836;23.998;2024-02-21T07:26:09;96328.66;;;7.21;100.00
12624;BME280;6377;42.836;23.998;2024-02-21T07:28:36;96366.81;;;7.54;100.00
12624;BME280;6377;42.836;23.998;2024-02-21T07:31:03;96341.84;;;7.49;100.00
12624;BME280;6377;42.836;23.998;2024-02-21T07:33:32;96368.56;;;7.63;100.00
12624;BME280;6377;42.836;23.998;2024-02-21T07:36:01;96363.56;;;7.60;100.00
12624;BME280;6377;42.836;23.998;2024-02-21T07:38:28;96369.53;;;7.62;100.00
12624;BME280;6377;42.836;23.998;2024-02-21T07:40:55;96362.47;;;7.63;100.00
12624;BME280;6377;42.836;23.998;2024-02-21T07:43:22;96362.03;;;7.67;100.00
12624;BME280;6377;42.836;23.998;2024-02-21T07:45:49;96359.94;;;7.80;100.00
12624;BME280;6377;42.836;23.998;2024-02-21T07:48:16;96362.22;;;7.93;100.00
12624;BME280;6377;42.836;23.998;2024-02-21T07:50:46;96355.94;;;8.04;100.00
12624;BME280;6377;42.836;23.998;2024-02-21T07:53:14;96361.31;;;8.12;100.00
12624;BME280;6377;42.836;23.998;2024-02-21T07:55:42;96360.47;;;8.11;100.00
12624;BME280;6377;42.836;23.998;2024-02-21T07:58:09;96354.19;;;8.22;100.00
12624;BME280;6377;42.836;23.998;2024-02-21T08:00:36;96353.84;;;8.34;100.00
12624;BME280;6377;42.836;23.998;2024-02-21T08:03:03;96314.84;;;8.11;100.00
12624;BME280;6377;42.836;23.998;2024-02-21T08:05:30;96357.50;;;8.51;100.00
12624;BME280;6377;42.836;23.998;2024-02-21T08:07:59;96178.88;;;7.38;100.00
12624;BME280;6377;42.836;23.998;2024-02-21T08:10:26;96349.44;;;8.70;100.00
12624;BME280;6377;42.836;23.998;2024-02-21T08:12:53;96350.22;;;8.63;100.00
12624;BME280;6377;42.836;23.998;2024-02-21T08:15:20;96356.47;;;8.62;100.00
12624;BME280;6377;42.836;23.998;2024-02-21T08:17:51;96356.91;;;8.75;100.00
12624;BME280;6377;42.836;23.998;2024-02-21T08:20:18;96347.66;;;8.88;100.00
12624;BME280;6377;42.836;23.998;2024-02-21T08:22:45;96352.31;;;8.77;100.00
12624;BME280;6377;42.836;23.998;2024-02-21T08:25:13;96355.78;;;8.77;100.00
12624;BME280;6377;42.836;23.998;2024-02-21T08:27:40;96348.19;;;8.74;100.00
12624;BME280;6377;42.836;23.998;2024-02-21T08:30:07;96355.03;;;8.85;100.00
12624;BME280;6377;42.836;23.998;2024-02-21T08:32:34;96352.84;;;8.98;100.00
12624;BME280;6377;42.836;23.998;2024-02-21T08:35:02;96348.53;;;9.15;100.00
12624;BME280;6377;42.836;23.998;2024-02-21T08:37:30;96356.09;;;9.10;100.00
12624;BME280;6377;42.836;23.998;2024-02-21T08:39:56;96346.41;;;9.18;100.00
12624;BME280;6377;42.836;23.998;2024-02-21T08:42:25;96347.84;;;9.30;100.00
12624;BME280;6377;42.836;23.998;2024-02-21T08:44:52;96352.16;;;9.39;100.00
12624;BME280;6377;42.836;23.998;2024-02-21T08:47:19;96238.75;;;8.78;100.00
12624;BME280;6377;42.836;23.998;2024-02-21T08:49:46;96345.34;;;9.54;100.00
12624;BME280;6377;42.836;23.998;2024-02-21T08:52:13;96344.16;;;9.49;100.00
12624;BME280;6377;42.836;23.998;2024-02-21T08:54:40;96343.31;;;9.48;100.00
12624;BME280;6377;42.836;23.998;2024-02-21T08:57:08;96346.47;;;9.52;100.00
12624;BME280;6377;42.836;23.998;2024-02-21T08:59:36;96347.34;;;9.61;100.00
12624;BME280;6377;42.836;23.998;2024-02-21T09:02:04;96338.66;;;9.68;100.00
12624;BME280;6377;42.836;23.998;2024-02-21T09:04:32;96335.75;;;9.79;100.00
12624;BME280;6377;42.836;23.998;2024-02-21T09:07:00;96358.81;;;10.03;100.00
12624;BME280;6377;42.836;23.998;2024-02-21T09:09:27;96299.53;;;10.05;100.00
12624;BME280;6377;42.836;23.998;2024-02-21T09:11:54;96337.97;;;10.26;93.95
12624;BME280;6377;42.836;23.998;2024-02-21T09:14:21;96345.97;;;10.42;97.76
12624;BME280;6377;42.836;23.998;2024-02-21T09:16:50;96341.19;;;10.53;84.77
12624;BME280;6377;42.836;23.998;2024-02-21T09:19:17;96283.75;;;10.22;82.48
12624;BME280;6377;42.836;23.998;2024-02-21T09:21:44;96339.34;;;10.54;77.58
12624;BME280;6377;42.836;23.998;2024-02-21T09:24:11;96341.88;;;10.72;79.47
12624;BME280;6377;42.836;23.998;2024-02-21T09:26:38;96347.06;;;10.97;73.03
12624;BME280;6377;42.836;23.998;2024-02-21T09:29:06;96341.75;;;11.21;70.59
12624;BME280;6377;42.836;23.998;2024-02-21T09:31:33;96342.91;;;11.43;70.37
12624;BME280;6377;42.836;23.998;2024-02-21T09:34:02;96301.22;;;11.29;68.16
12624;BME280;6377;42.836;23.998;2024-02-21T09:36:29;96345.06;;;11.32;60.35
12624;BME280;6377;42.836;23.998;2024-02-21T09:38:56;96339.09;;;11.38;63.94
12624;BME280;6377;42.836;23.998;2024-02-21T09:41:26;96333.94;;;11.76;60.97
12624;BME280;6377;42.836;23.998;2024-02-21T09:43:53;96335.56;;;11.94;55.87
12624;BME280;6377;42.836;23.998;2024-02-21T09:46:24;96336.59;;;11.76;54.79
12624;BME280;6377;42.836;23.998;2024-02-21T09:49:07;96330.97;;;12.18;57.59
12624;BME280;6377;42.836;23.998;2024-02-21T09:51:38;96329.19;;;12.50;58.22
12624;BME280;6377;42.836;23.998;2024-02-21T09:54:07;96309.25;;;12.54;55.66
12624;BME280;6377;42.836;23.998;2024-02-21T09:56:34;96326.84;;;13.08;55.52
12624;BME280;6377;42.836;23.998;2024-02-21T09:59:02;96330.44;;;13.38;53.01
12624;BME280;6377;42.836;23.998;2024-02-21T10:01:31;96330.00;;;13.49;50.47
12624;BME280;6377;42.836;23.998;2024-02-21T10:03:58;96329.38;;;13.62;50.05
12624;BME280;6377;42.836;23.998;2024-02-21T10:06:27;96325.22;;;13.59;48.30
12624;BME280;6377;42.836;23.998;2024-02-21T10:08:54;96319.75;;;13.75;49.60
12624;BME280;6377;42.836;23.998;2024-02-21T10:11:24;96308.13;;;14.20;48.86
12624;BME280;6377;42.836;23.998;2024-02-21T10:13:51;96263.09;;;14.04;47.92
12624;BME280;6377;42.836;23.998;2024-02-21T10:16:29;96294.63;;;14.36;46.22
12624;BME280;6377;42.836;23.998;2024-02-21T10:18:56;96314.91;;;14.23;45.96
12624;BME280;6377;42.836;23.998;2024-02-21T10:21:23;96150.19;;;13.12;47.42
12624;BME280;6377;42.836;23.998;2024-02-21T10:23:52;96313.97;;;14.16;45.02
12624;BME280;6377;42.836;23.998;2024-02-21T10:26:19;96305.38;;;14.14;47.03
12624;BME280;6377;42.836;23.998;2024-02-21T10:28:47;96300.13;;;13.62;46.24
12624;BME280;6377;42.836;23.998;2024-02-21T10:31:23;96297.72;;;13.37;47.47
12624;BME280;6377;42.836;23.998;2024-02-21T10:33:55;96296.22;;;13.20;47.92
12624;BME280;6377;42.836;23.998;2024-02-21T10:36:22;96283.34;;;13.09;48.51
12624;BME280;6377;42.836;23.998;2024-02-21T10:38:51;96292.66;;;12.82;48.38
12624;BME280;6377;42.836;23.998;2024-02-21T10:41:20;96281.91;;;12.53;48.14
12624;BME280;6377;42.836;23.998;2024-02-21T10:43:50;96277.22;;;12.32;48.60
12624;BME280;6377;42.836;23.998;2024-02-21T10:46:20;96285.09;;;12.10;49.61
12624;BME280;6377;42.836;23.998;2024-02-21T10:48:50;96274.50;;;11.71;49.38
12624;BME280;6377;42.836;23.998;2024-02-21T10:51:20;96273.53;;;11.48;51.43
12624;BME280;6377;42.836;23.998;2024-02-21T10:54:05;96278.16;;;11.46;51.69
12624;BME280;6377;42.836;23.998;2024-02-21T10:56:35;96263.75;;;11.48;53.12
12624;BME280;6377;42.836;23.998;2024-02-21T10:59:07;96263.28;;;11.45;50.81
12624;BME280;6377;42.836;23.998;2024-02-21T11:01:35;96259.66;;;11.21;50.09
12624;BME280;6377;42.836;23.998;2024-02-21T11:04:03;96261.97;;;11.24;51.58
12624;BME280;6377;42.836;23.998;2024-02-21T11:06:31;96267.81;;;11.12;51.61
12624;BME280;6377;42.836;23.998;2024-02-21T11:09:05;96266.16;;;11.11;52.76
12624;BME280;6377;42.836;23.998;2024-02-21T11:11:36;96263.69;;;11.09;51.71
12624;BME280;6377;42.836;23.998;2024-02-21T11:14:05;96258.06;;;11.12;52.12
12624;BME280;6377;42.836;23.998;2024-02-21T11:16:35;96244.81;;;11.12;53.82
12624;BME280;6377;42.836;23.998;2024-02-21T11:19:05;96251.44;;;11.08;51.95
12624;BME280;6377;42.836;23.998;2024-02-21T11:21:35;96253.41;;;10.98;52.07
12624;BME280;6377;42.836;23.998;2024-02-21T11:24:05;96216.03;;;10.69;54.47
12624;BME280;6377;42.836;23.998;2024-02-21T11:26:32;96252.25;;;10.93;54.14
12624;BME280;6377;42.836;23.998;2024-02-21T11:29:00;96253.25;;;11.00;54.38
12624;BME280;6377;42.836;23.998;2024-02-21T11:31:38;96248.13;;;11.14;53.85
12624;BME280;6377;42.836;23.998;2024-02-21T11:34:09;96247.94;;;11.16;52.38
12624;BME280;6377;42.836;23.998;2024-02-21T11:36:39;96242.97;;;11.21;52.67
12624;BME280;6377;42.836;23.998;2024-02-21T11:39:18;96236.34;;;11.25;52.51
12624;BME280;6377;42.836;23.998;2024-02-21T11:41:47;96243.28;;;11.26;53.27
12624;BME280;6377;42.836;23.998;2024-02-21T11:44:14;96233.19;;;11.21;52.39
12624;BME280;6377;42.836;23.998;2024-02-21T11:46:41;96226.72;;;11.32;51.91
12624;BME280;6377;42.836;23.998;2024-02-21T11:49:09;96228.97;;;11.51;52.55
12624;BME280;6377;42.836;23.998;2024-02-21T11:51:37;96224.03;;;11.48;49.65
12624;BME280;6377;42.836;23.998;2024-02-21T11:54:05;96219.53;;;11.57;49.62
12624;BME280;6377;42.836;23.998;2024-02-21T11:56:35;96215.88;;;11.58;49.41
12624;BME280;6377;42.836;23.998;2024-02-21T11:59:02;96210.91;;;11.71;49.41
12624;BME280;6377;42.836;23.998;2024-02-21T12:01:29;96187.28;;;11.45;48.53
12624;BME280;6377;42.836;23.998;2024-02-21T12:03:56;96206.59;;;11.70;49.16
12624;BME280;6377;42.836;23.998;2024-02-21T12:06:23;96209.38;;;11.68;48.63
12624;BME280;6377;42.836;23.998;2024-02-21T12:08:50;96209.91;;;11.64;49.18
12624;BME280;6377;42.836;23.998;2024-02-21T12:11:19;96201.25;;;11.78;48.58
12624;BME280;6377;42.836;23.998;2024-02-21T12:13:58;96202.09;;;11.78;50.08
12624;BME280;6377;42.836;23.998;2024-02-21T12:16:27;96195.13;;;11.86;49.16
12624;BME280;6377;42.836;23.998;2024-02-21T12:18:55;96187.47;;;11.91;49.11
12624;BME280;6377;42.836;23.998;2024-02-21T12:21:26;96193.34;;;11.70;48.23
12624;BME280;6377;42.836;23.998;2024-02-21T12:23:54;96186.53;;;11.75;48.20
12624;BME280;6377;42.836;23.998;2024-02-21T12:26:21;96188.53;;;11.73;48.53
12624;BME280;6377;42.836;23.998;2024-02-21T12:28:50;96192.56;;;11.92;49.50
12624;BME280;6377;42.836;23.998;2024-02-21T12:31:17;96183.81;;;11.92;48.45
12624;BME280;6377;42.836;23.998;2024-02-21T12:33:44;96175.59;;;11.78;47.80
12624;BME280;6377;42.836;23.998;2024-02-21T12:36:11;96061.44;;;11.18;48.33
12624;BME280;6377;42.836;23.998;2024-02-21T12:38:38;96165.91;;;12.16;48.31
12624;BME280;6377;42.836;23.998;2024-02-21T12:41:05;96158.84;;;12.31;46.44
12624;BME280;6377;42.836;23.998;2024-02-21T12:43:33;96165.56;;;12.42;45.87
12624;BME280;6377;42.836;23.998;2024-02-21T12:46:05;96162.88;;;12.50;46.41
12624;BME280;6377;42.836;23.998;2024-02-21T12:48:32;96163.44;;;12.38;46.60
12624;BME280;6377;42.836;23.998;2024-02-21T12:51:00;96158.22;;;12.29;46.18
12624;BME280;6377;42.836;23.998;2024-02-21T12:53:27;96139.88;;;12.20;45.94
12624;BME280;6377;42.836;23.998;2024-02-21T12:55:54;96151.72;;;12.32;45.99
12624;BME280;6377;42.836;23.998;2024-02-21T12:58:21;96152.13;;;12.44;44.92
12624;BME280;6377;42.836;23.998;2024-02-21T13:00:48;96139.16;;;12.49;46.06
12624;BME280;6377;42.836;23.998;2024-02-21T13:03:16;96141.72;;;12.57;46.44